sensor_id;sensor_type;location;lat;lon;timestamp;temperature;humidity
3312;DHT22;1668;49.648;8.570;2023-07-29T00:00:53;18.70;99.90
3312;DHT22;1668;49.648;8.570;2023-07-29T00:03:21;18.70;99.90
3312;DHT22;1668;49.648;8.570;2023-07-29T00:05:48;18.70;99.90
3312;DHT22;1668;49.648;8.570;2023-07-29T00:08:15;18.60;99.90
3312;DHT22;1668;49.648;8.570;2023-07-29T00:10:43;18.70;99.90
3312;DHT22;1668;49.648;8.570;2023-07-29T00:13:10;18.70;99.90
3312;DHT22;1668;49.648;8.570;2023-07-29T00:15:37;18.70;99.90
3312;DHT22;1668;49.648;8.570;2023-07-29T00:18:04;18.60;99.90
3312;DHT22;1668;49.648;8.570;2023-07-29T00:20:31;18.60;99.90
3312;DHT22;1668;49.648;8.570;2023-07-29T00:22:58;18.60;99.90
3312;DHT22;1668;49.648;8.570;2023-07-29T00:25:25;18.70;99.90
3312;DHT22;1668;49.648;8.570;2023-07-29T00:27:55;18.60;99.90
3312;DHT22;1668;49.648;8.570;2023-07-29T00:30:22;18.70;99.90
3312;DHT22;1668;49.648;8.570;2023-07-29T00:32:49;18.70;99.90
3312;DHT22;1668;49.648;8.570;2023-07-29T00:35:16;18.70;99.90
3312;DHT22;1668;49.648;8.570;2023-07-29T00:37:43;18.70;99.90
3312;DHT22;1668;49.648;8.570;2023-07-29T00:40:15;18.70;99.90
3312;DHT22;1668;49.648;8.570;2023-07-29T00:42:42;18.70;99.90
3312;DHT22;1668;49.648;8.570;2023-07-29T00:45:10;18.70;99.90
3312;DHT22;1668;49.648;8.570;2023-07-29T00:47:38;18.70;99.90
3312;DHT22;1668;49.648;8.570;2023-07-29T00:50:06;18.70;99.90
3312;DHT22;1668;49.648;8.570;2023-07-29T00:52:33;18.70;99.90
3312;DHT22;1668;49.648;8.570;2023-07-29T00:55:00;18.70;99.90
3312;DHT22;1668;49.648;8.570;2023-07-29T00:57:29;18.70;99.90
3312;DHT22;1668;49.648;8.570;2023-07-29T00:59:56;18.70;99.90
3312;DHT22;1668;49.648;8.570;2023-07-29T01:02:25;18.70;99.90
3312;DHT22;1668;49.648;8.570;2023-07-29T01:04:53;18.70;99.90
3312;DHT22;1668;49.648;8.570;2023-07-29T01:07:23;18.70;99.90
3312;DHT22;1668;49.648;8.570;2023-07-29T01:09:58;18.70;99.90
3312;DHT22;1668;49.648;8.570;2023-07-29T01:12:32;18.70;99.90
3312;DHT22;1668;49.648;8.570;2023-07-29T01:15:11;18.70;99.90
3312;DHT22;1668;49.648;8.570;2023-07-29T01:17:43;18.70;99.90
3312;DHT22;1668;49.648;8.570;2023-07-29T01:20:14;18.70;99.90
3312;DHT22;1668;49.648;8.570;2023-07-29T01:22:41;18.70;99.90
3312;DHT22;1668;49.648;8.570;2023-07-29T01:25:10;18.70;99.90
3312;DHT22;1668;49.648;8.570;2023-07-29T01:27:36;18.70;99.90
3312;DHT22;1668;49.648;8.570;2023-07-29T01:30:04;18.70;99.90
3312;DHT22;1668;49.648;8.570;2023-07-29T01:32:36;18.70;99.90
3312;DHT22;1668;49.648;8.570;2023-07-29T01:35:10;18.70;99.90
3312;DHT22;1668;49.648;8.570;2023-07-29T01:37:41;18.70;99.90
3312;DHT22;1668;49.648;8.570;2023-07-29T01:40:10;18.70;99.90
3312;DHT22;1668;49.648;8.570;2023-07-29T01:42:37;18.70;99.90
3312;DHT22;1668;49.648;8.570;2023-07-29T01:45:05;18.70;99.90
3312;DHT22;1668;49.648;8.570;2023-07-29T01:47:32;18.70;99.90
3312;DHT22;1668;49.648;8.570;2023-07-29T01:49:59;18.70;99.90
3312;DHT22;1668;49.648;8.570;2023-07-29T01:52:26;18.70;99.90
3312;DHT22;1668;49.648;8.570;2023-07-29T01:54:53;18.70;99.90
3312;DHT22;1668;49.648;8.570;2023-07-29T01:57:21;18.70;99.90
3312;DHT22;1668;49.648;8.570;2023-07-29T01:59:47;18.70;99.90
3312;DHT22;1668;49.648;8.570;2023-07-29T02:02:14;18.70;99.90
3312;DHT22;1668;49.648;8.570;2023-07-29T02:04:41;18.70;99.90
3312;DHT22;1668;49.648;8.570;2023-07-29T02:07:08;18.70;99.90
3312;DHT22;1668;49.648;8.570;2023-07-29T02:09:35;18.70;99.90
3312;DHT22;1668;49.648;8.570;2023-07-29T02:12:02;18.70;99.90
3312;DHT22;1668;49.648;8.570;2023-07-29T02:14:30;18.70;99.90
3312;DHT22;1668;49.648;8.570;2023-07-29T02:16:57;18.70;99.90
3312;DHT22;1668;49.648;8.570;2023-07-29T02:19:24;18.70;99.90
3312;DHT22;1668;49.648;8.570;2023-07-29T02:21:50;18.70;99.90
3312;DHT22;1668;49.648;8.570;2023-07-29T02:24:17;18.70;99.90
3312;DHT22;1668;49.648;8.570;2023-07-29T02:26:44;18.60;99.90
3312;DHT22;1668;49.648;8.570;2023-07-29T02:29:11;18.60;99.90
3312;DHT22;1668;49.648;8.570;2023-07-29T02:31:39;18.60;99.90
3312;DHT22;1668;49.648;8.570;2023-07-29T02:34:06;18.60;99.90
3312;DHT22;1668;49.648;8.570;2023-07-29T02:36:33;18.60;99.90
3312;DHT22;1668;49.648;8.570;2023-07-29T02:39:00;18.60;99.90
3312;DHT22;1668;49.648;8.570;2023-07-29T02:41:26;18.60;99.90
3312;DHT22;1668;49.648;8.570;2023-07-29T02:43:53;18.60;99.90
3312;DHT22;1668;49.648;8.570;2023-07-29T02:46:20;18.60;99.90
3312;DHT22;1668;49.648;8.570;2023-07-29T02:48:50;18.60;99.90
3312;DHT22;1668;49.648;8.570;2023-07-29T02:51:17;18.60;99.90
3312;DHT22;1668;49.648;8.570;2023-07-29T02:53:44;18.60;99.90
3312;DHT22;1668;49.648;8.570;2023-07-29T02:56:10;18.60;99.90
3312;DHT22;1668;49.648;8.570;2023-07-29T02:58:37;18.60;99.90
3312;DHT22;1668;49.648;8.570;2023-07-29T03:01:05;18.60;99.90
3312;DHT22;1668;49.648;8.570;2023-07-29T03:03:32;18.60;99.90
3312;DHT22;1668;49.648;8.570;2023-07-29T03:06:03;18.60;99.90
3312;DHT22;1668;49.648;8.570;2023-07-29T03:08:30;18.60;99.90
3312;DHT22;1668;49.648;8.570;2023-07-29T03:10:57;18.60;99.90
3312;DHT22;1668;49.648;8.570;2023-07-29T03:13:24;18.60;99.90
3312;DHT22;1668;49.648;8.570;2023-07-29T03:15:51;18.60;99.90
3312;DHT22;1668;49.648;8.570;2023-07-29T03:18:18;18.60;99.90
3312;DHT22;1668;49.648;8.570;2023-07-29T03:20:44;18.60;99.90
3312;DHT22;1668;49.648;8.570;2023-07-29T03:23:13;18.50;99.90
3312;DHT22;1668;49.648;8.570;2023-07-29T03:25:39;18.50;99.90
3312;DHT22;1668;49.648;8.570;2023-07-29T03:28:06;18.50;99.90
3312;DHT22;1668;49.648;8.570;2023-07-29T03:30:33;18.50;99.90
3312;DHT22;1668;49.648;8.570;2023-07-29T03:33:00;18.60;99.90
3312;DHT22;1668;49.648;8.570;2023-07-29T03:35:27;18.60;99.90
3312;DHT22;1668;49.648;8.570;2023-07-29T03:37:53;18.60;99.90
3312;DHT22;1668;49.648;8.570;2023-07-29T03:40:22;18.60;99.90
3312;DHT22;1668;49.648;8.570;2023-07-29T03:42:48;18.60;99.90
3312;DHT22;1668;49.648;8.570;2023-07-29T03:45:15;18.60;99.90
3312;DHT22;1668;49.648;8.570;2023-07-29T03:47:42;18.60;99.90
3312;DHT22;1668;49.648;8.570;2023-07-29T03:50:09;18.60;99.90
3312;DHT22;1668;49.648;8.570;2023-07-29T03:52:36;18.60;99.90
3312;DHT22;1668;49.648;8.570;2023-07-29T03:55:03;18.50;99.90
3312;DHT22;1668;49.648;8.570;2023-07-29T03:57:32;18.60;99.90
3312;DHT22;1668;49.648;8.570;2023-07-29T03:59:59;18.60;99.90
3312;DHT22;1668;49.648;8.570;2023-07-29T04:02:26;18.60;99.90
3312;DHT22;1668;49.648;8.570;2023-07-29T04:04:53;18.60;99.90
3312;DHT22;1668;49.648;8.570;2023-07-29T04:07:19;18.60;99.90
3312;DHT22;1668;49.648;8.570;2023-07-29T04:09:46;18.60;99.90
3312;DHT22;1668;49.648;8.570;2023-07-29T04:12:13;18.60;99.90
3312;DHT22;1668;49.648;8.570;2023-07-29T04:14:42;18.60;99.90
3312;DHT22;1668;49.648;8.570;2023-07-29T04:17:08;18.60;99.90
3312;DHT22;1668;49.648;8.570;2023-07-29T04:19:35;18.60;99.90
3312;DHT22;1668;49.648;8.570;2023-07-29T04:22:02;18.60;99.90
3312;DHT22;1668;49.648;8.570;2023-07-29T04:24:29;18.60;99.90
3312;DHT22;1668;49.648;8.570;2023-07-29T04:26:56;18.60;99.90
3312;DHT22;1668;49.648;8.570;2023-07-29T04:29:23;18.60;99.90
3312;DHT22;1668;49.648;8.570;2023-07-29T04:31:51;18.60;99.90
3312;DHT22;1668;49.648;8.570;2023-07-29T04:34:19;18.60;99.90
3312;DHT22;1668;49.648;8.570;2023-07-29T04:36:46;18.60;99.90
3312;DHT22;1668;49.648;8.570;2023-07-29T04:39:13;18.60;99.90
3312;DHT22;1668;49.648;8.570;2023-07-29T04:41:40;18.60;99.90
3312;DHT22;1668;49.648;8.570;2023-07-29T04:44:07;18.60;99.90
3312;DHT22;1668;49.648;8.570;2023-07-29T04:46:35;18.60;99.90
3312;DHT22;1668;49.648;8.570;2023-07-29T04:49:03;18.60;99.90
3312;DHT22;1668;49.648;8.570;2023-07-29T04:51:30;18.60;99.90
3312;DHT22;1668;49.648;8.570;2023-07-29T04:53:57;18.60;99.90
3312;DHT22;1668;49.648;8.570;2023-07-29T04:56:24;18.60;99.90
3312;DHT22;1668;49.648;8.570;2023-07-29T04:58:51;18.60;99.90
3312;DHT22;1668;49.648;8.570;2023-07-29T05:01:17;18.60;99.90
3312;DHT22;1668;49.648;8.570;2023-07-29T05:03:44;18.60;99.90
3312;DHT22;1668;49.648;8.570;2023-07-29T05:06:13;18.60;99.90
3312;DHT22;1668;49.648;8.570;2023-07-29T05:08:39;18.60;99.90
3312;DHT22;1668;49.648;8.570;2023-07-29T05:11:06;18.70;99.90
3312;DHT22;1668;49.648;8.570;2023-07-29T05:13:33;18.70;99.90
3312;DHT22;1668;49.648;8.570;2023-07-29T05:16:00;18.70;99.90
3312;DHT22;1668;49.648;8.570;2023-07-29T05:18:27;18.70;99.90
3312;DHT22;1668;49.648;8.570;2023-07-29T05:20:54;18.70;99.90
3312;DHT22;1668;49.648;8.570;2023-07-29T05:23:22;18.70;99.90
3312;DHT22;1668;49.648;8.570;2023-07-29T05:25:49;18.70;99.90
3312;DHT22;1668;49.648;8.570;2023-07-29T05:28:16;18.70;99.90
3312;DHT22;1668;49.648;8.570;2023-07-29T05:30:43;18.70;99.90
3312;DHT22;1668;49.648;8.570;2023-07-29T05:33:10;18.70;99.90
3312;DHT22;1668;49.648;8.570;2023-07-29T05:35:37;18.70;99.90
3312;DHT22;1668;49.648;8.570;2023-07-29T05:38:04;18.70;99.90
3312;DHT22;1668;49.648;8.570;2023-07-29T05:40:35;18.70;99.90
3312;DHT22;1668;49.648;8.570;2023-07-29T05:43:01;18.70;99.90
3312;DHT22;1668;49.648;8.570;2023-07-29T05:45:28;18.70;99.90
3312;DHT22;1668;49.648;8.570;2023-07-29T05:47:56;18.80;99.90
3312;DHT22;1668;49.648;8.570;2023-07-29T05:50:23;18.80;99.90
3312;DHT22;1668;49.648;8.570;2023-07-29T05:52:50;18.70;99.90
3312;DHT22;1668;49.648;8.570;2023-07-29T05:55:17;18.70;99.90
3312;DHT22;1668;49.648;8.570;2023-07-29T05:57:45;18.70;99.90
3312;DHT22;1668;49.648;8.570;2023-07-29T06:00:12;18.70;99.90
3312;DHT22;1668;49.648;8.570;2023-07-29T06:02:39;18.70;99.90
3312;DHT22;1668;49.648;8.570;2023-07-29T06:05:07;18.70;99.90
3312;DHT22;1668;49.648;8.570;2023-07-29T06:07:33;18.70;99.90
3312;DHT22;1668;49.648;8.570;2023-07-29T06:10:00;18.70;99.90
3312;DHT22;1668;49.648;8.570;2023-07-29T06:12:27;18.70;99.90
3312;DHT22;1668;49.648;8.570;2023-07-29T06:14:55;18.70;99.90
3312;DHT22;1668;49.648;8.570;2023-07-29T06:17:22;18.70;99.90
3312;DHT22;1668;49.648;8.570;2023-07-29T06:19:49;18.80;99.90
3312;DHT22;1668;49.648;8.570;2023-07-29T06:22:16;18.70;99.90
3312;DHT22;1668;49.648;8.570;2023-07-29T06:24:43;18.80;99.90
3312;DHT22;1668;49.648;8.570;2023-07-29T06:27:10;18.80;99.90
3312;DHT22;1668;49.648;8.570;2023-07-29T06:29:36;18.80;99.90
3312;DHT22;1668;49.648;8.570;2023-07-29T06:32:05;18.80;99.90
3312;DHT22;1668;49.648;8.570;2023-07-29T06:34:32;18.80;99.90
3312;DHT22;1668;49.648;8.570;2023-07-29T06:36:59;18.90;99.90
3312;DHT22;1668;49.648;8.570;2023-07-29T06:39:26;18.90;99.90
3312;DHT22;1668;49.648;8.570;2023-07-29T06:41:53;18.90;99.90
3312;DHT22;1668;49.648;8.570;2023-07-29T06:44:19;18.90;99.90
3312;DHT22;1668;49.648;8.570;2023-07-29T06:46:46;18.90;99.90
3312;DHT22;1668;49.648;8.570;2023-07-29T06:49:15;18.90;99.90
3312;DHT22;1668;49.648;8.570;2023-07-29T06:51:41;18.90;99.90
3312;DHT22;1668;49.648;8.570;2023-07-29T06:54:08;19.00;99.90
3312;DHT22;1668;49.648;8.570;2023-07-29T06:56:35;19.00;99.90
3312;DHT22;1668;49.648;8.570;2023-07-29T06:59:02;19.00;99.90
3312;DHT22;1668;49.648;8.570;2023-07-29T07:01:29;19.00;99.90
3312;DHT22;1668;49.648;8.570;2023-07-29T07:03:56;19.00;99.90
3312;DHT22;1668;49.648;8.570;2023-07-29T07:06:25;19.00;99.90
3312;DHT22;1668;49.648;8.570;2023-07-29T07:08:52;19.00;99.90
3312;DHT22;1668;49.648;8.570;2023-07-29T07:11:19;19.10;99.90
3312;DHT22;1668;49.648;8.570;2023-07-29T07:13:46;19.10;99.90
3312;DHT22;1668;49.648;8.570;2023-07-29T07:16:13;19.20;99.90
3312;DHT22;1668;49.648;8.570;2023-07-29T07:18:39;19.30;99.90
3312;DHT22;1668;49.648;8.570;2023-07-29T07:21:06;19.30;99.90
3312;DHT22;1668;49.648;8.570;2023-07-29T07:23:35;19.30;99.90
3312;DHT22;1668;49.648;8.570;2023-07-29T07:26:02;19.30;99.90
3312;DHT22;1668;49.648;8.570;2023-07-29T07:28:28;19.30;99.90
3312;DHT22;1668;49.648;8.570;2023-07-29T07:30:55;19.30;99.90
3312;DHT22;1668;49.648;8.570;2023-07-29T07:33:22;19.30;99.90
3312;DHT22;1668;49.648;8.570;2023-07-29T07:35:49;19.30;99.90
3312;DHT22;1668;49.648;8.570;2023-07-29T07:38:16;19.30;99.90
3312;DHT22;1668;49.648;8.570;2023-07-29T07:40:52;19.20;99.90
3312;DHT22;1668;49.648;8.570;2023-07-29T07:43:20;19.30;99.90
3312;DHT22;1668;49.648;8.570;2023-07-29T07:45:47;19.30;99.90
3312;DHT22;1668;49.648;8.570;2023-07-29T07:48:14;19.30;99.90
3312;DHT22;1668;49.648;8.570;2023-07-29T07:50:42;19.30;99.90
3312;DHT22;1668;49.648;8.570;2023-07-29T07:53:09;19.30;99.90
3312;DHT22;1668;49.648;8.570;2023-07-29T07:55:36;19.30;99.90
3312;DHT22;1668;49.648;8.570;2023-07-29T07:58:04;19.40;99.90
3312;DHT22;1668;49.648;8.570;2023-07-29T08:00:31;19.40;99.90
3312;DHT22;1668;49.648;8.570;2023-07-29T08:02:58;19.30;99.90
3312;DHT22;1668;49.648;8.570;2023-07-29T08:05:25;19.30;99.90
3312;DHT22;1668;49.648;8.570;2023-07-29T08:07:52;19.20;99.90
3312;DHT22;1668;49.648;8.570;2023-07-29T08:10:19;19.20;99.90
3312;DHT22;1668;49.648;8.570;2023-07-29T08:12:46;19.10;99.90
3312;DHT22;1668;49.648;8.570;2023-07-29T08:15:14;19.00;99.90
3312;DHT22;1668;49.648;8.570;2023-07-29T08:17:41;19.00;99.90
3312;DHT22;1668;49.648;8.570;2023-07-29T08:20:08;19.00;99.90
3312;DHT22;1668;49.648;8.570;2023-07-29T08:22:36;19.10;99.90
3312;DHT22;1668;49.648;8.570;2023-07-29T08:25:03;19.10;99.90
3312;DHT22;1668;49.648;8.570;2023-07-29T08:27:30;19.10;99.90
3312;DHT22;1668;49.648;8.570;2023-07-29T08:29:57;19.10;99.90
3312;DHT22;1668;49.648;8.570;2023-07-29T08:32:25;19.10;99.90
3312;DHT22;1668;49.648;8.570;2023-07-29T08:34:52;19.10;99.90
3312;DHT22;1668;49.648;8.570;2023-07-29T08:37:18;19.20;99.90
3312;DHT22;1668;49.648;8.570;2023-07-29T08:39:45;19.20;99.90
3312;DHT22;1668;49.648;8.570;2023-07-29T08:42:13;19.20;99.90
3312;DHT22;1668;49.648;8.570;2023-07-29T08:44:42;19.20;99.90
3312;DHT22;1668;49.648;8.570;2023-07-29T08:47:09;19.30;99.90
3312;DHT22;1668;49.648;8.570;2023-07-29T08:49:40;19.30;99.90
3312;DHT22;1668;49.648;8.570;2023-07-29T08:52:09;19.30;99.90
3312;DHT22;1668;49.648;8.570;2023-07-29T08:54:36;19.40;99.90
3312;DHT22;1668;49.648;8.570;2023-07-29T08:57:04;19.40;99.90
3312;DHT22;1668;49.648;8.570;2023-07-29T08:59:31;19.40;99.90
3312;DHT22;1668;49.648;8.570;2023-07-29T09:01:59;19.50;99.90
3312;DHT22;1668;49.648;8.570;2023-07-29T09:04:26;19.50;99.90
3312;DHT22;1668;49.648;8.570;2023-07-29T09:06:56;19.60;99.90
3312;DHT22;1668;49.648;8.570;2023-07-29T09:09:25;19.60;99.90
3312;DHT22;1668;49.648;8.570;2023-07-29T09:11:52;19.70;99.90
3312;DHT22;1668;49.648;8.570;2023-07-29T09:14:20;19.80;99.90
3312;DHT22;1668;49.648;8.570;2023-07-29T09:16:47;19.90;99.90
3312;DHT22;1668;49.648;8.570;2023-07-29T09:19:14;19.90;99.90
3312;DHT22;1668;49.648;8.570;2023-07-29T09:21:41;19.90;99.90
3312;DHT22;1668;49.648;8.570;2023-07-29T09:24:09;20.00;99.90
3312;DHT22;1668;49.648;8.570;2023-07-29T09:26:36;20.10;99.90
3312;DHT22;1668;49.648;8.570;2023-07-29T09:29:03;20.20;99.90
3312;DHT22;1668;49.648;8.570;2023-07-29T09:31:30;20.20;99.90
3312;DHT22;1668;49.648;8.570;2023-07-29T09:33:58;20.30;99.90
3312;DHT22;1668;49.648;8.570;2023-07-29T09:36:25;20.30;99.90
3312;DHT22;1668;49.648;8.570;2023-07-29T09:38:53;20.30;99.90
3312;DHT22;1668;49.648;8.570;2023-07-29T09:41:24;20.40;99.90
3312;DHT22;1668;49.648;8.570;2023-07-29T09:43:55;20.50;99.90
3312;DHT22;1668;49.648;8.570;2023-07-29T09:46:24;20.70;99.90
3312;DHT22;1668;49.648;8.570;2023-07-29T09:48:53;20.80;99.90
3312;DHT22;1668;49.648;8.570;2023-07-29T09:51:20;20.90;99.90
3312;DHT22;1668;49.648;8.570;2023-07-29T09:53:49;20.90;99.90
3312;DHT22;1668;49.648;8.570;2023-07-29T09:56:16;21.00;99.90
3312;DHT22;1668;49.648;8.570;2023-07-29T09:58:45;21.20;99.90
3312;DHT22;1668;49.648;8.570;2023-07-29T10:01:12;21.30;99.90
3312;DHT22;1668;49.648;8.570;2023-07-29T10:03:40;21.50;99.90
3312;DHT22;1668;49.648;8.570;2023-07-29T10:06:07;21.60;99.90
3312;DHT22;1668;49.648;8.570;2023-07-29T10:08:34;21.60;99.90
3312;DHT22;1668;49.648;8.570;2023-07-29T10:11:05;21.70;99.90
3312;DHT22;1668;49.648;8.570;2023-07-29T10:13:33;21.80;99.90
3312;DHT22;1668;49.648;8.570;2023-07-29T10:16:02;21.90;99.90
3312;DHT22;1668;49.648;8.570;2023-07-29T10:18:31;22.00;99.90
3312;DHT22;1668;49.648;8.570;2023-07-29T10:20:59;22.10;99.90
3312;DHT22;1668;49.648;8.570;2023-07-29T10:23:27;22.20;76.00
3312;DHT22;1668;49.648;8.570;2023-07-29T10:25:59;22.40;17.00
3312;DHT22;1668;49.648;8.570;2023-07-29T10:28:30;22.50;42.00
3312;DHT22;1668;49.648;8.570;2023-07-29T10:30:57;22.60;1.00
3312;DHT22;1668;49.648;8.570;2023-07-29T10:33:26;22.70;1.00
3312;DHT22;1668;49.648;8.570;2023-07-29T10:35:53;22.80;1.00
3312;DHT22;1668;49.648;8.570;2023-07-29T10:38:21;22.90;1.00
3312;DHT22;1668;49.648;8.570;2023-07-29T10:40:51;23.00;1.00
3312;DHT22;1668;49.648;8.570;2023-07-29T10:43:24;23.00;1.00
3312;DHT22;1668;49.648;8.570;2023-07-29T10:45:51;23.10;1.00
3312;DHT22;1668;49.648;8.570;2023-07-29T10:48:41;23.10;1.00
3312;DHT22;1668;49.648;8.570;2023-07-29T10:51:28;23.10;1.00
3312;DHT22;1668;49.648;8.570;2023-07-29T10:54:02;23.20;1.00
3312;DHT22;1668;49.648;8.570;2023-07-29T10:56:30;23.20;1.00
3312;DHT22;1668;49.648;8.570;2023-07-29T11:01:43;23.40;99.90
3312;DHT22;1668;49.648;8.570;2023-07-29T11:04:28;23.50;99.90
3312;DHT22;1668;49.648;8.570;2023-07-29T11:07:24;23.60;99.90
3312;DHT22;1668;49.648;8.570;2023-07-29T11:09:55;23.70;99.90
3312;DHT22;1668;49.648;8.570;2023-07-29T11:12:40;23.70;99.90
3312;DHT22;1668;49.648;8.570;2023-07-29T11:15:16;23.90;99.90
3312;DHT22;1668;49.648;8.570;2023-07-29T11:17:45;23.90;99.90
3312;DHT22;1668;49.648;8.570;2023-07-29T11:20:15;24.00;99.90
3312;DHT22;1668;49.648;8.570;2023-07-29T11:22:42;24.10;99.90
3312;DHT22;1668;49.648;8.570;2023-07-29T11:25:11;24.20;99.90
3312;DHT22;1668;49.648;8.570;2023-07-29T11:27:38;24.20;99.90
3312;DHT22;1668;49.648;8.570;2023-07-29T11:30:06;24.20;98.80
3312;DHT22;1668;49.648;8.570;2023-07-29T11:32:34;24.30;1.00
3312;DHT22;1668;49.648;8.570;2023-07-29T11:35:02;24.20;1.00
3312;DHT22;1668;49.648;8.570;2023-07-29T11:37:32;24.30;1.00
3312;DHT22;1668;49.648;8.570;2023-07-29T11:39:59;24.30;1.00
3312;DHT22;1668;49.648;8.570;2023-07-29T11:42:26;24.40;99.90
3312;DHT22;1668;49.648;8.570;2023-07-29T11:44:55;24.60;1.00
3312;DHT22;1668;49.648;8.570;2023-07-29T11:47:22;24.70;1.00
3312;DHT22;1668;49.648;8.570;2023-07-29T11:49:49;24.80;99.90
3312;DHT22;1668;49.648;8.570;2023-07-29T11:52:16;24.90;1.00
3312;DHT22;1668;49.648;8.570;2023-07-29T11:54:48;25.10;1.00
3312;DHT22;1668;49.648;8.570;2023-07-29T11:57:16;25.10;1.00
3312;DHT22;1668;49.648;8.570;2023-07-29T11:59:44;25.20;99.90
3312;DHT22;1668;49.648;8.570;2023-07-29T12:02:12;25.30;1.00
3312;DHT22;1668;49.648;8.570;2023-07-29T12:04:40;25.30;37.00
3312;DHT22;1668;49.648;8.570;2023-07-29T12:07:08;25.40;1.00
3312;DHT22;1668;49.648;8.570;2023-07-29T12:09:36;25.30;13.80
3312;DHT22;1668;49.648;8.570;2023-07-29T12:12:06;25.30;99.90
3312;DHT22;1668;49.648;8.570;2023-07-29T12:14:33;25.40;1.00
3312;DHT22;1668;49.648;8.570;2023-07-29T12:17:01;25.50;89.60
3312;DHT22;1668;49.648;8.570;2023-07-29T12:19:32;25.70;1.00
3312;DHT22;1668;49.648;8.570;2023-07-29T12:21:59;25.70;1.00
3312;DHT22;1668;49.648;8.570;2023-07-29T12:24:26;25.90;99.90
3312;DHT22;1668;49.648;8.570;2023-07-29T12:26:53;26.00;99.90
3312;DHT22;1668;49.648;8.570;2023-07-29T12:29:22;26.00;1.00
3312;DHT22;1668;49.648;8.570;2023-07-29T12:31:49;26.00;1.00
3312;DHT22;1668;49.648;8.570;2023-07-29T12:34:26;26.20;99.90
3312;DHT22;1668;49.648;8.570;2023-07-29T12:36:53;26.10;1.00
3312;DHT22;1668;49.648;8.570;2023-07-29T12:39:23;26.10;99.90
3312;DHT22;1668;49.648;8.570;2023-07-29T12:41:52;26.10;1.00
3312;DHT22;1668;49.648;8.570;2023-07-29T12:44:19;26.20;1.00
3312;DHT22;1668;49.648;8.570;2023-07-29T12:46:47;26.30;1.00
3312;DHT22;1668;49.648;8.570;2023-07-29T12:49:14;26.40;12.20
3312;DHT22;1668;49.648;8.570;2023-07-29T12:51:41;26.40;1.00
3312;DHT22;1668;49.648;8.570;2023-07-29T12:54:08;26.40;99.90
3312;DHT22;1668;49.648;8.570;2023-07-29T12:56:35;26.60;18.40
3312;DHT22;1668;49.648;8.570;2023-07-29T12:59:02;26.80;1.00
3312;DHT22;1668;49.648;8.570;2023-07-29T13:01:29;26.90;1.00
3312;DHT22;1668;49.648;8.570;2023-07-29T13:03:58;26.80;1.00
3312;DHT22;1668;49.648;8.570;2023-07-29T13:06:24;26.70;1.00
3312;DHT22;1668;49.648;8.570;2023-07-29T13:08:52;26.70;1.00
3312;DHT22;1668;49.648;8.570;2023-07-29T13:11:19;26.70;99.90
3312;DHT22;1668;49.648;8.570;2023-07-29T13:13:45;26.80;1.00
3312;DHT22;1668;49.648;8.570;2023-07-29T13:16:12;26.90;99.90
3312;DHT22;1668;49.648;8.570;2023-07-29T13:18:39;27.00;1.00
3312;DHT22;1668;49.648;8.570;2023-07-29T13:21:08;26.90;1.00
3312;DHT22;1668;49.648;8.570;2023-07-29T13:23:35;26.80;1.00
3312;DHT22;1668;49.648;8.570;2023-07-29T13:26:01;27.00;1.00
3312;DHT22;1668;49.648;8.570;2023-07-29T13:28:28;27.10;61.90
3312;DHT22;1668;49.648;8.570;2023-07-29T13:30:55;27.20;55.10
3312;DHT22;1668;49.648;8.570;2023-07-29T13:33:22;27.20;59.50
3312;DHT22;1668;49.648;8.570;2023-07-29T13:35:49;27.20;57.60
3312;DHT22;1668;49.648;8.570;2023-07-29T13:38:17;27.10;59.90
3312;DHT22;1668;49.648;8.570;2023-07-29T13:40:45;27.00;60.90
3312;DHT22;1668;49.648;8.570;2023-07-29T13:43:12;27.10;60.60
3312;DHT22;1668;49.648;8.570;2023-07-29T13:45:39;27.20;61.00
3312;DHT22;1668;49.648;8.570;2023-07-29T13:48:06;27.30;60.10
3312;DHT22;1668;49.648;8.570;2023-07-29T13:50:32;27.20;58.80
3312;DHT22;1668;49.648;8.570;2023-07-29T13:52:59;27.20;58.00
3312;DHT22;1668;49.648;8.570;2023-07-29T13:55:27;27.20;59.10
3312;DHT22;1668;49.648;8.570;2023-07-29T13:57:54;27.10;58.80
3312;DHT22;1668;49.648;8.570;2023-07-29T14:00:21;27.20;59.80
3312;DHT22;1668;49.648;8.570;2023-07-29T14:02:48;27.50;58.20
3312;DHT22;1668;49.648;8.570;2023-07-29T14:05:15;27.60;57.90
3312;DHT22;1668;49.648;8.570;2023-07-29T14:07:42;27.70;58.50
3312;DHT22;1668;49.648;8.570;2023-07-29T14:10:09;27.70;54.80
3312;DHT22;1668;49.648;8.570;2023-07-29T14:12:37;27.60;54.80
3312;DHT22;1668;49.648;8.570;2023-07-29T14:15:05;27.60;55.00
3312;DHT22;1668;49.648;8.570;2023-07-29T14:17:32;27.80;53.90
3312;DHT22;1668;49.648;8.570;2023-07-29T14:19:59;27.90;54.50
3312;DHT22;1668;49.648;8.570;2023-07-29T14:22:26;27.80;55.10
3312;DHT22;1668;49.648;8.570;2023-07-29T14:24:53;27.70;55.00
3312;DHT22;1668;49.648;8.570;2023-07-29T14:27:20;27.60;56.90
3312;DHT22;1668;49.648;8.570;2023-07-29T14:29:48;27.70;55.00
3312;DHT22;1668;49.648;8.570;2023-07-29T14:32:15;27.80;54.80
3312;DHT22;1668;49.648;8.570;2023-07-29T14:34:42;27.70;55.50
3312;DHT22;1668;49.648;8.570;2023-07-29T14:37:08;27.60;56.60
3312;DHT22;1668;49.648;8.570;2023-07-29T14:39:35;27.50;56.60
3312;DHT22;1668;49.648;8.570;2023-07-29T14:42:02;27.50;56.50
3312;DHT22;1668;49.648;8.570;2023-07-29T14:44:29;27.50;58.50
3312;DHT22;1668;49.648;8.570;2023-07-29T14:46:57;27.70;56.50
3312;DHT22;1668;49.648;8.570;2023-07-29T14:49:24;27.70;55.20
3312;DHT22;1668;49.648;8.570;2023-07-29T14:51:51;27.50;56.20
3312;DHT22;1668;49.648;8.570;2023-07-29T14:54:18;27.60;56.90
3312;DHT22;1668;49.648;8.570;2023-07-29T14:56:45;27.80;58.00
3312;DHT22;1668;49.648;8.570;2023-07-29T14:59:11;28.10;53.50
3312;DHT22;1668;49.648;8.570;2023-07-29T15:01:38;28.10;53.70
3312;DHT22;1668;49.648;8.570;2023-07-29T15:04:06;28.30;53.00
3312;DHT22;1668;49.648;8.570;2023-07-29T15:06:33;28.20;53.20
3312;DHT22;1668;49.648;8.570;2023-07-29T15:09:00;28.40;54.40
3312;DHT22;1668;49.648;8.570;2023-07-29T15:11:28;28.50;52.10
3312;DHT22;1668;49.648;8.570;2023-07-29T15:13:55;28.60;53.10
3312;DHT22;1668;49.648;8.570;2023-07-29T15:16:23;28.70;53.20
3312;DHT22;1668;49.648;8.570;2023-07-29T15:18:50;28.60;54.00
3312;DHT22;1668;49.648;8.570;2023-07-29T15:21:19;28.70;52.60
3312;DHT22;1668;49.648;8.570;2023-07-29T15:23:45;28.80;49.70
3312;DHT22;1668;49.648;8.570;2023-07-29T15:26:13;28.70;50.90
3312;DHT22;1668;49.648;8.570;2023-07-29T15:28:39;28.50;51.20
3312;DHT22;1668;49.648;8.570;2023-07-29T15:31:06;28.30;52.70
3312;DHT22;1668;49.648;8.570;2023-07-29T15:33:33;28.10;53.90
3312;DHT22;1668;49.648;8.570;2023-07-29T15:36:00;27.90;54.70
3312;DHT22;1668;49.648;8.570;2023-07-29T15:38:28;27.70;60.00
3312;DHT22;1668;49.648;8.570;2023-07-29T15:40:55;27.60;64.60
3312;DHT22;1668;49.648;8.570;2023-07-29T15:43:22;27.70;64.80
3312;DHT22;1668;49.648;8.570;2023-07-29T15:45:49;28.00;62.10
3312;DHT22;1668;49.648;8.570;2023-07-29T15:48:16;28.10;60.40
3312;DHT22;1668;49.648;8.570;2023-07-29T15:50:43;28.20;58.20
3312;DHT22;1668;49.648;8.570;2023-07-29T15:53:10;28.60;56.80
3312;DHT22;1668;49.648;8.570;2023-07-29T15:55:38;28.60;55.90
3312;DHT22;1668;49.648;8.570;2023-07-29T15:58:05;28.70;55.00
3312;DHT22;1668;49.648;8.570;2023-07-29T16:00:32;28.60;54.40
3312;DHT22;1668;49.648;8.570;2023-07-29T16:02:59;28.90;54.70
3312;DHT22;1668;49.648;8.570;2023-07-29T16:05:26;29.20;53.80
3312;DHT22;1668;49.648;8.570;2023-07-29T16:07:53;29.30;53.00